Baytik Shan, China
Current Conditions -  °F | °C
As of 7:00 PM on Sunday 23 Nov 2014 (Local Time) from ZWWW Reporting Station
Smoke Smoke  
Wind Chill: 30°   Ceiling: Unl
Heat Index: 30°   Visibility: 1.5mi
Dew Point: 23°   Wind: 2mph
Humidity: 75%   Direction: 260°W
Pressure: 30.15"   Gusts: NA
Location:  45.37°N, 90.53°E
Report Text: ZWWW 231100Z 26001MPS 2500 FU NSC M01/M05 Q1021 BECMGTL11503000 FU
Loading
Personal Weather Stations






























Interactive Weather Map New forecast layout! Learn more

10-Day Weather Forecast

Advertisements
Track Severe Weather on mobile